Terminal Aerodrome Forecast
Issued by NWS

Home | Current Version | Previous Version | Text Only | Print | Product List | Glossary Off
Versions: 1 2 3 4 5 6 7 8 9 10 11 12 13 14 15 16 17 18

000
FTUS42 KMHX 231150 CCA
TAFPGV
TAF COR
KPGV 231150Z 2312/2412 11005KT P6SM SCT030
      TEMPO 2312/2313 5SM BR
     FM231700 16013G20KT P6SM SCT025 BKN040
     FM240300 18011G18KT 4SM -SHRA VCTS SCT020CB OVC040
     FM240800 18009KT 4SM -SHRA VCTS SCT007 OVC015CB
      AMD LTD TO CLD VIS AND WIND=

USA.gov is the U.S. government's official web portal to all federal, state and local government web resources and services.